Time;durP1;ratioP1;P1;durP2;ratioP2;P2;SDS_P1;SDS_P2;PMS_P1;PMS_P2;Temp;Humidity;BMP_temperature;BMP_pressure;BME280_temperature;BME280_humidity;BME280_pressure;Samples;Min_cycle;Max_cycle;Signal;HPM_P1;HPM_P2
2022/04/05 00:00:13;;;;;;;31.00;14.60;;;10.50;99.90;;;;;;4037551;29;20209;-92
2022/04/05 00:02:14;;;;;;;36.37;14.30;;;10.60;99.90;;;;;;4022314;29;20182;-93
2022/04/05 00:04:15;;;;;;;28.33;13.98;;;10.60;99.90;;;;;;4037286;29;20188;-92
2022/04/05 00:06:16;;;;;;;33.30;13.73;;;10.60;99.90;;;;;;4021376;29;20227;-92
2022/04/05 00:08:16;;;;;;;33.90;13.97;;;10.60;99.90;;;;;;4022289;29;20322;-93
2022/04/05 00:10:17;;;;;;;36.03;15.03;;;10.70;99.90;;;;;;4022083;29;20213;-92
2022/04/05 00:12:20;;;;;;;30.93;13.73;;;10.80;99.90;;;;;;4037308;29;20182;-92
2022/04/05 00:14:21;;;;;;;34.85;14.18;;;10.80;99.90;;;;;;4022085;29;20305;-94
2022/04/05 00:16:21;;;;;;;36.47;14.47;;;10.80;99.90;;;;;;4021948;29;20213;-92
2022/04/05 00:18:22;;;;;;;31.67;12.90;;;10.80;99.90;;;;;;4021965;29;20588;-93
2022/04/05 00:20:23;;;;;;;30.93;12.80;;;10.80;99.90;;;;;;4021950;29;20265;-93
2022/04/05 00:22:24;;;;;;;26.73;13.37;;;10.80;99.90;;;;;;4021775;29;20242;-93
2022/04/05 00:24:25;;;;;;;29.27;13.30;;;10.70;99.90;;;;;;4037221;29;20681;-93
2022/04/05 00:26:26;;;;;;;30.53;13.90;;;10.80;99.90;;;;;;4021734;29;20238;-92
2022/04/05 00:28:27;;;;;;;35.33;13.23;;;10.70;99.90;;;;;;4021650;29;20197;-91
2022/04/05 00:30:28;;;;;;;29.50;12.67;;;10.70;99.90;;;;;;4022067;29;20178;-93
2022/04/05 00:32:29;;;;;;;27.80;11.43;;;10.80;99.90;;;;;;4021622;29;20200;-93
2022/04/05 00:34:30;;;;;;;31.50;13.07;;;10.70;99.90;;;;;;4021695;29;20270;-92
2022/04/05 00:36:31;;;;;;;25.83;12.27;;;10.70;99.90;;;;;;4037206;29;20229;-92
2022/04/05 00:38:31;;;;;;;27.45;12.52;;;10.70;99.90;;;;;;4021875;29;20220;-93
2022/04/05 00:40:32;;;;;;;26.70;12.60;;;10.70;99.90;;;;;;4021967;29;20525;-92
2022/04/05 00:42:36;;;;;;;28.37;12.60;;;10.70;99.90;;;;;;4036958;29;20260;-92
2022/04/05 00:44:38;;;;;;;31.95;13.80;;;10.60;99.90;;;;;;4037040;29;20189;-92
2022/04/05 00:46:38;;;;;;;29.27;13.63;;;10.80;99.90;;;;;;4021577;29;20221;-91
2022/04/05 00:48:52;;;;;;;25.77;12.73;;;10.90;99.90;;;;;;4021684;29;20186;-92
2022/04/05 00:50:53;;;;;;;35.60;13.83;;;10.80;99.90;;;;;;4021499;29;20182;-92
2022/04/05 00:52:54;;;;;;;31.23;13.30;;;10.80;99.90;;;;;;4036777;29;20275;-92
2022/04/05 00:54:56;;;;;;;24.63;13.68;;;10.90;99.90;;;;;;4021585;29;20171;-91
2022/04/05 00:56:57;;;;;;;29.17;12.53;;;10.80;99.90;;;;;;4021858;29;20277;-92
2022/04/05 00:59:00;;;;;;;28.87;13.10;;;10.80;99.90;;;;;;4021714;29;20261;-91
2022/04/05 01:01:01;;;;;;;28.45;13.63;;;10.90;99.90;;;;;;4021584;29;20190;-92
2022/04/05 01:03:02;;;;;;;34.57;13.97;;;11.00;99.90;;;;;;4021602;29;20258;-91
2022/04/05 01:05:05;;;;;;;26.67;13.30;;;10.90;99.90;;;;;;4021897;29;20186;-92
2022/04/05 01:07:18;;;;;;;27.73;14.03;;;10.90;99.90;;;;;;4037279;29;20224;-91
2022/04/05 01:09:20;;;;;;;31.27;14.00;;;11.00;99.90;;;;;;4021729;29;20182;-92
2022/04/05 01:11:21;;;;;;;29.67;13.80;;;11.10;99.90;;;;;;4021976;29;20178;-92
2022/04/05 01:13:22;;;;;;;25.08;13.25;;;11.00;99.90;;;;;;4021674;29;20648;-92
2022/04/05 01:15:23;;;;;;;33.28;14.27;;;11.00;99.90;;;;;;4021309;29;20178;-93
2022/04/05 01:17:24;;;;;;;29.10;14.40;;;11.10;99.90;;;;;;4021272;29;20209;-92
2022/04/05 01:19:26;;;;;;;31.30;14.00;;;11.20;99.90;;;;;;4023286;29;20705;-92
2022/04/05 01:21:27;;;;;;;32.20;13.30;;;11.20;99.90;;;;;;4024959;29;20659;-92
2022/04/05 01:23:28;;;;;;;35.47;14.60;;;11.20;99.90;;;;;;4024234;29;20265;-93
2022/04/05 01:25:29;;;;;;;33.03;13.60;;;11.20;99.90;;;;;;4024089;29;20185;-93
2022/04/05 01:27:29;;;;;;;25.23;12.18;;;11.20;99.90;;;;;;4023755;29;20292;-93
2022/04/05 01:29:37;;;;;;;37.53;14.07;;;11.30;99.90;;;;;;4024046;29;20581;-93
2022/04/05 01:31:41;;;;;;;30.15;13.30;;;11.40;99.90;;;;;;4024344;29;20170;-92
2022/04/05 01:33:43;;;;;;;34.90;13.93;;;11.40;99.90;;;;;;4024086;29;20226;-93
2022/04/05 01:35:43;;;;;;;31.25;14.23;;;11.30;99.90;;;;;;4024088;29;20166;-93
2022/04/05 01:37:44;;;;;;;34.05;13.07;;;11.20;99.90;;;;;;4023729;29;20239;-93
2022/04/05 01:39:45;;;;;;;27.65;12.85;;;11.20;99.90;;;;;;4023972;29;20174;-93
2022/04/05 01:41:50;;;;;;;30.90;12.75;;;11.30;99.90;;;;;;4023956;29;20272;-92
2022/04/05 01:43:50;;;;;;;35.72;12.63;;;11.30;99.90;;;;;;4023904;29;20174;-92
2022/04/05 01:45:51;;;;;;;34.00;12.80;;;11.40;99.90;;;;;;4024117;29;20182;-94
2022/04/05 01:47:52;;;;;;;31.65;13.45;;;11.40;99.90;;;;;;4039170;29;20213;-93
2022/04/05 01:49:53;;;;;;;35.58;13.38;;;11.40;99.90;;;;;;4039527;29;20174;-92
2022/04/05 01:51:54;;;;;;;27.08;12.50;;;11.30;99.90;;;;;;4023664;29;20193;-92
2022/04/05 01:53:57;;;;;;;29.30;12.57;;;11.30;99.90;;;;;;4023729;29;20253;-92
2022/04/05 01:55:58;;;;;;;31.27;13.10;;;11.20;99.90;;;;;;4039083;29;20182;-94
2022/04/05 01:58:02;;;;;;;26.38;12.60;;;11.30;99.90;;;;;;4023794;29;20213;-94
2022/04/05 02:00:05;;;;;;;26.30;12.33;;;11.40;99.90;;;;;;4023730;29;20239;-94
2022/04/05 02:02:12;;;;;;;32.28;12.40;;;11.30;99.90;;;;;;4040141;29;20563;-93
2022/04/05 02:04:13;;;;;;;29.17;12.65;;;11.30;99.90;;;;;;4023894;29;20215;-93
2022/04/05 02:06:14;;;;;;;25.08;11.55;;;11.20;99.90;;;;;;4023713;29;20187;-94
2022/04/05 02:08:15;;;;;;;38.72;12.95;;;11.30;99.90;;;;;;4039165;29;20170;-93
2022/04/05 02:10:16;;;;;;;31.92;12.75;;;11.30;99.90;;;;;;4038372;29;20260;-93
2022/04/05 02:12:19;;;;;;;26.35;11.77;;;11.20;99.90;;;;;;4023775;29;20269;-93
2022/04/05 02:14:43;;;;;;;29.30;12.75;;;11.30;99.90;;;;;;4026070;29;20229;-93
2022/04/05 02:16:57;;;;;;;27.67;11.97;;;11.30;99.90;;;;;;4023861;29;20194;-94
2022/04/05 02:19:08;;;;;;;30.33;12.48;;;11.30;99.90;;;;;;4023302;29;20240;-93
2022/04/05 02:21:13;;;;;;;31.92;12.70;;;11.30;99.90;;;;;;4023529;29;20230;-94
2022/04/05 02:23:15;;;;;;;31.83;13.27;;;11.20;99.90;;;;;;4023268;29;20246;-92
2022/04/05 02:25:32;;;;;;;27.58;12.30;;;11.30;99.90;;;;;;4025349;29;20271;-94
2022/04/05 02:27:41;;;;;;;33.60;12.90;;;11.40;99.90;;;;;;4038466;29;20214;-95
2022/04/05 02:29:43;;;;;;;28.38;13.27;;;11.60;99.90;;;;;;4023096;29;20185;-92
2022/04/05 02:31:51;;;;;;;28.48;12.80;;;11.70;99.90;;;;;;4038939;29;20251;-93
2022/04/05 02:33:54;;;;;;;30.90;13.00;;;11.60;99.90;;;;;;4038704;29;20213;-93
2022/04/05 02:36:08;;;;;;;32.63;12.90;;;11.40;99.90;;;;;;4024508;29;20186;-94
2022/04/05 02:38:31;;;;;;;;;;;;;;;;;;;;;
2022/04/05 02:40:34;;;;;;;34.20;13.32;;;11.40;99.90;;;;;;4038579;29;20666;-92
2022/04/05 02:42:38;;;;;;;32.63;12.60;;;11.50;99.90;;;;;;4022595;29;20183;-93
2022/04/05 02:44:47;;;;;;;23.38;12.32;;;11.50;99.90;;;;;;4023778;29;20174;-93
2022/04/05 02:46:49;;;;;;;27.65;13.20;;;11.50;99.90;;;;;;4038196;29;20205;-92
2022/04/05 02:48:53;;;;;;;32.72;13.20;;;11.50;99.90;;;;;;4038223;29;20559;-93
2022/04/05 02:51:03;;;;;;;34.15;12.90;;;11.70;99.90;;;;;;4038544;29;20277;-94
2022/04/05 02:53:05;;;;;;;33.88;12.63;;;11.60;99.90;;;;;;4022845;29;20699;-92
2022/04/05 02:55:08;;;;;;;30.02;13.27;;;11.50;99.90;;;;;;4023188;29;20166;-93
2022/04/05 02:57:09;;;;;;;29.90;13.18;;;11.60;99.90;;;;;;4038497;29;20201;-94
2022/04/05 02:59:16;;;;;;;30.05;12.77;;;11.60;99.90;;;;;;4038276;29;20181;-93
2022/04/05 03:01:18;;;;;;;31.92;12.35;;;11.50;99.90;;;;;;4023022;29;20178;-94
2022/04/05 03:03:28;;;;;;;31.25;12.13;;;11.60;99.90;;;;;;4023395;29;20645;-95
2022/04/05 03:05:52;;;;;;;33.67;13.48;;;11.50;99.90;;;;;;4023067;29;20178;-93
2022/04/05 03:08:22;;;;;;;34.40;12.68;;;11.40;99.90;;;;;;4023807;29;20167;-93
2022/04/05 03:10:56;;;;;;;25.00;11.63;;;11.40;99.90;;;;;;4033783;29;20281;-93
2022/04/05 03:13:16;;;;;;;32.03;13.05;;;11.20;99.90;;;;;;4012843;29;20193;-94
2022/04/05 03:15:33;;;;;;;27.70;12.32;;;11.30;99.90;;;;;;4022855;29;20640;-94
2022/04/05 03:17:47;;;;;;;29.98;12.90;;;11.30;99.90;;;;;;4022663;29;20690;-94
2022/04/05 03:19:58;;;;;;;39.83;12.80;;;11.30;99.90;;;;;;4023285;29;20235;-94
2022/04/05 03:22:02;;;;;;;30.92;12.63;;;11.30;99.90;;;;;;4022673;29;20179;-95
2022/04/05 03:24:04;;;;;;;27.40;13.00;;;11.30;99.90;;;;;;4022412;29;20186;-94
2022/04/05 03:26:05;;;;;;;28.65;12.65;;;11.40;99.90;;;;;;4022399;29;20261;-92
2022/04/05 03:28:06;;;;;;;27.70;13.13;;;11.30;99.90;;;;;;4022423;29;20197;-93
2022/04/05 03:30:13;;;;;;;35.90;13.82;;;11.30;99.90;;;;;;4022478;29;20273;-93
2022/04/05 03:32:15;;;;;;;29.10;12.13;;;11.30;99.90;;;;;;4022216;29;20588;-92
2022/04/05 03:34:26;;;;;;;32.75;13.27;;;11.30;99.90;;;;;;4037860;29;20244;-93
2022/04/05 03:36:28;;;;;;;30.52;12.60;;;11.40;99.90;;;;;;4022482;29;20198;-93
2022/04/05 03:38:33;;;;;;;30.67;12.27;;;11.50;99.90;;;;;;4022396;29;20182;-94
2022/04/05 03:40:35;;;;;;;27.98;12.20;;;11.60;99.90;;;;;;4022301;29;20262;-93
2022/04/05 03:42:38;;;;;;;24.98;11.40;;;11.70;99.90;;;;;;4022112;29;20205;-92
2022/04/05 03:44:40;;;;;;;25.73;12.05;;;11.80;99.90;;;;;;4037582;29;20217;-91
2022/04/05 03:46:59;;;;;;;;;;;;;;;;;;;;;
2022/04/05 03:49:13;;;;;;;28.60;11.45;;;11.70;99.90;;;;;;4037975;29;20685;-93
2022/04/05 03:51:16;;;;;;;24.58;11.30;;;11.70;99.90;;;;;;4022551;29;20197;-93
2022/04/05 03:53:52;;;;;;;27.17;11.57;;;11.70;99.90;;;;;;4036042;29;20221;-94
2022/04/05 03:56:02;;;;;;;21.73;11.00;;;11.60;99.90;;;;;;4021595;29;20680;-94
2022/04/05 03:58:36;;;;;;;24.35;11.27;;;11.60;99.90;;;;;;4022348;29;20182;-93
2022/04/05 04:01:36;;;;;;;;;;;;;;;;;;;;;
2022/04/05 04:04:02;;;;;;;24.90;10.50;;;11.70;99.90;;;;;;4054175;29;20188;-94
2022/04/05 04:06:37;;;;;;;25.52;11.35;;;11.70;99.90;;;;;;4022749;29;20576;-93
2022/04/05 04:09:03;;;;;;;24.75;10.52;;;11.70;99.90;;;;;;4039037;29;20646;-93
2022/04/05 04:11:21;;;;;;;23.25;10.60;;;11.80;99.90;;;;;;4023903;29;20186;-93
2022/04/05 04:13:28;;;;;;;29.80;10.68;;;11.70;99.90;;;;;;4037048;29;20220;-93
2022/04/05 04:15:31;;;;;;;22.42;10.07;;;11.70;99.90;;;;;;4021883;29;20198;-92
2022/04/05 04:17:38;;;;;;;21.23;10.60;;;11.60;99.90;;;;;;4037144;29;20201;-94
2022/04/05 04:19:45;;;;;;;25.52;10.82;;;11.60;99.90;;;;;;4022732;29;20174;-95
2022/04/05 04:21:46;;;;;;;27.70;10.93;;;11.50;99.90;;;;;;4037281;29;20177;-94
2022/04/05 04:23:47;;;;;;;25.42;11.68;;;11.60;99.90;;;;;;4037289;29;20185;-93
2022/04/05 04:26:06;;;;;;;23.17;10.88;;;11.60;99.90;;;;;;4022701;29;20181;-94
2022/04/05 04:30:50;;;;;;;26.92;12.05;;;11.60;99.90;;;;;;4027891;29;20202;-94
2022/04/05 04:32:53;;;;;;;22.90;11.68;;;11.70;99.90;;;;;;4021939;29;20174;-94
2022/04/05 04:34:54;;;;;;;22.88;10.55;;;11.70;99.90;;;;;;4037791;29;20189;-94
2022/04/05 04:36:56;;;;;;;24.92;12.85;;;11.70;99.90;;;;;;4021889;29;20568;-92
2022/04/05 04:38:57;;;;;;;28.23;13.82;;;11.70;99.90;;;;;;4021908;29;20548;-92
2022/04/05 04:41:03;;;;;;;27.60;13.52;;;11.80;99.90;;;;;;4037398;29;20174;-94
2022/04/05 04:43:05;;;;;;;30.50;12.93;;;11.80;99.90;;;;;;4037248;29;20188;-93
2022/04/05 04:45:06;;;;;;;25.45;13.45;;;11.90;99.90;;;;;;4022147;29;20170;-92
2022/04/05 04:47:07;;;;;;;26.65;13.38;;;11.90;99.90;;;;;;4037220;29;20205;-93
2022/04/05 04:49:08;;;;;;;27.10;12.88;;;11.90;99.90;;;;;;4021982;29;20172;-93
2022/04/05 04:51:14;;;;;;;22.55;13.23;;;11.80;99.90;;;;;;4037189;29;20188;-94
2022/04/05 04:53:23;;;;;;;24.00;12.90;;;11.80;99.90;;;;;;4023321;29;20258;-95
2022/04/05 04:55:28;;;;;;;30.98;13.57;;;11.60;99.90;;;;;;4024721;29;20217;-94
2022/04/05 04:57:51;;;;;;;22.88;12.73;;;11.70;99.90;;;;;;4024446;29;20202;-94
2022/04/05 04:59:53;;;;;;;24.08;13.35;;;11.70;99.90;;;;;;4014908;29;20186;-93
2022/04/05 05:02:11;;;;;;;23.23;12.75;;;11.70;99.90;;;;;;4024404;29;20181;-93
2022/04/05 05:04:12;;;;;;;22.80;13.05;;;11.80;99.90;;;;;;4024663;29;20243;-93
2022/04/05 05:06:18;;;;;;;22.42;13.05;;;11.60;99.90;;;;;;4039752;29;20173;-93
2022/04/05 05:08:19;;;;;;;22.90;12.88;;;11.80;99.90;;;;;;4039672;29;20181;-93
2022/04/05 05:10:21;;;;;;;20.98;11.95;;;11.90;99.90;;;;;;4024451;29;20185;-95
2022/04/05 05:12:22;;;;;;;23.88;13.35;;;11.90;99.90;;;;;;4024403;29;20643;-94
2022/04/05 05:14:23;;;;;;;20.45;12.02;;;11.80;99.90;;;;;;4024424;29;20210;-94
2022/04/05 05:16:24;;;;;;;23.00;12.75;;;12.00;99.90;;;;;;4024632;29;20262;-92
2022/04/05 05:18:25;;;;;;;24.65;13.68;;;12.00;99.90;;;;;;4040030;29;20186;-93
2022/04/05 05:20:29;;;;;;;25.27;13.93;;;11.90;99.90;;;;;;4039763;29;20189;-93
2022/04/05 05:22:39;;;;;;;20.48;12.07;;;11.80;99.90;;;;;;4024453;29;20239;-93
2022/04/05 05:24:58;;;;;;;18.92;11.90;;;11.60;99.90;;;;;;4025205;29;20238;-94
2022/04/05 05:26:58;;;;;;;23.85;11.48;;;11.60;99.90;;;;;;4024029;29;20729;-93
2022/04/05 05:28:59;;;;;;;25.20;12.48;;;11.50;99.90;;;;;;4023977;29;20182;-93
2022/04/05 05:31:00;;;;;;;20.52;12.32;;;11.60;99.90;;;;;;4024089;29;20185;-93
2022/04/05 08:15:58;;;;;;;13.00;8.43;;;12.70;99.90;;;;;;4378710;23;20386;-93
2022/04/05 08:18:02;;;;;;;12.57;8.10;;;12.90;99.90;;;;;;4068068;29;20220;-95
2022/04/05 08:20:06;;;;;;;13.85;8.10;;;12.80;99.90;;;;;;4052928;29;20197;-92
2022/04/05 08:22:13;;;;;;;11.02;8.18;;;12.80;99.90;;;;;;4069406;29;20271;-93
2022/04/05 08:24:13;;;;;;;10.88;7.97;;;13.00;99.90;;;;;;4052796;29;20169;-93
2022/04/05 08:26:17;;;;;;;13.20;7.97;;;13.10;99.90;;;;;;4053909;29;20189;-95
2022/04/05 08:28:43;;;;;;;11.13;7.25;;;13.10;99.90;;;;;;4056921;29;20176;-94
2022/04/05 08:30:50;;;;;;;12.07;8.20;;;13.20;99.90;;;;;;4056615;29;20181;-93
2022/04/05 08:32:51;;;;;;;12.15;7.43;;;13.30;99.90;;;;;;4056821;29;20183;-91
2022/04/05 08:34:52;;;;;;;14.85;8.45;;;13.10;99.90;;;;;;4057189;29;20698;-94
2022/04/05 08:36:53;;;;;;;13.60;8.25;;;13.30;99.90;;;;;;4056581;29;20260;-94
2022/04/05 08:38:54;;;;;;;13.90;7.93;;;13.40;99.90;;;;;;4056116;29;20185;-93
2022/04/05 08:40:55;;;;;;;10.85;7.55;;;13.40;99.90;;;;;;4056323;29;20176;-92
2022/04/05 08:42:59;;;;;;;14.38;7.82;;;13.40;99.90;;;;;;4058181;29;20625;-94
2022/04/05 08:45:07;;;;;;;13.00;7.95;;;13.40;99.90;;;;;;4072280;29;20633;-94
2022/04/05 08:50:50;;;;;;;11.70;8.00;;;13.60;99.90;;;;;;4132609;23;20276;-93
2022/04/05 08:52:57;;;;;;;11.68;7.07;;;13.40;99.90;;;;;;4042058;29;20173;-93
2022/04/05 08:55:01;;;;;;;12.80;6.80;;;13.50;99.90;;;;;;4042796;29;20280;-95
2022/04/05 08:57:19;;;;;;;9.93;6.72;;;13.50;99.90;;;;;;4051401;29;20745;-93
2022/04/05 08:59:43;;;;;;;10.05;6.57;;;13.60;99.90;;;;;;4078022;28;20159;-94
2022/04/05 09:01:56;;;;;;;8.98;6.40;;;13.40;99.90;;;;;;4062163;29;20276;-93
2022/04/05 09:04:04;;;;;;;9.38;6.18;;;13.50;99.90;;;;;;4063907;29;20173;-93
2022/04/05 09:06:27;;;;;;;8.75;5.93;;;13.40;99.90;;;;;;4081352;29;20357;-93
2022/04/05 09:08:31;;;;;;;10.10;6.60;;;13.20;99.90;;;;;;4065399;29;20252;-93
2022/04/05 09:10:41;;;;;;;8.68;6.82;;;13.30;99.90;;;;;;4065632;29;20193;-94
2022/04/05 09:12:50;;;;;;;9.25;7.30;;;13.20;99.90;;;;;;4062726;29;20172;-92
2022/04/05 09:14:52;;;;;;;10.30;6.80;;;13.10;99.90;;;;;;4065661;29;20223;-92
2022/04/05 09:17:08;;;;;;;7.50;5.90;;;13.30;99.90;;;;;;4064808;29;20289;-93
2022/04/05 09:19:14;;;;;;;13.95;7.45;;;13.30;99.90;;;;;;4079870;29;20176;-93
2022/04/05 09:21:16;;;;;;;11.63;7.15;;;13.50;99.90;;;;;;4058817;29;20650;-93
2022/04/05 09:23:29;;;;;;;9.25;6.13;;;13.70;99.90;;;;;;4062415;29;20180;-93
2022/04/05 09:25:32;;;;;;;9.43;5.80;;;13.60;99.90;;;;;;4078341;29;20225;-93
2022/04/05 09:30:36;;;;;;;10.60;6.28;;;13.80;99.90;;;;;;4066431;29;20184;-94
2022/04/05 09:32:42;;;;;;;5.80;5.10;;;14.10;99.90;;;;;;4063663;29;20173;-93
2022/04/05 09:34:50;;;;;;;11.15;6.57;;;14.10;99.90;;;;;;4061442;29;20223;-94
2022/04/05 09:36:51;;;;;;;11.23;6.32;;;14.20;99.90;;;;;;4076859;29;20183;-94
2022/04/05 09:39:09;;;;;;;11.80;6.25;;;14.30;99.90;;;;;;4057534;29;20181;-94
2022/04/05 09:41:22;;;;;;;66.55;39.45;;;14.20;99.90;;;;;;4057487;29;20212;-96
2022/04/05 09:43:23;;;;;;;38.42;30.13;;;14.20;99.90;;;;;;4057258;29;20177;-93
2022/04/05 09:45:58;;;;;;;51.33;41.60;;;14.20;99.90;;;;;;4059544;29;20622;-93
2022/04/05 09:48:03;;;;;;;11.98;8.32;;;14.10;99.90;;;;;;4057874;29;20201;-93
2022/04/05 09:50:12;;;;;;;10.18;8.45;;;14.10;99.90;;;;;;4061085;29;20195;-93
2022/04/05 09:52:57;;;;;;;8.18;6.60;;;13.90;99.90;;;;;;4087418;28;20181;-94
2022/04/05 09:55:11;;;;;;;7.80;5.35;;;13.80;99.90;;;;;;4078782;28;20566;-92
2022/04/05 09:57:11;;;;;;;9.05;7.50;;;13.70;99.90;;;;;;4057980;29;20649;-94
2022/04/05 09:59:22;;;;;;;11.30;9.73;;;13.60;99.90;;;;;;4070423;29;20187;-94
2022/04/05 10:01:32;;;;;;;7.75;5.70;;;13.50;99.90;;;;;;4071677;29;20164;-94
2022/04/05 10:03:54;;;;;;;9.95;7.18;;;13.80;99.90;;;;;;4055093;29;20173;-93
2022/04/05 10:06:01;;;;;;;7.28;5.55;;;13.70;99.90;;;;;;4073995;28;20176;-94
2022/04/05 10:08:03;;;;;;;8.48;5.80;;;14.00;99.90;;;;;;4057255;29;20243;-94
2022/04/05 10:10:07;;;;;;;7.80;6.07;;;13.80;99.90;;;;;;4070241;29;20275;-93
2022/04/05 10:12:14;;;;;;;6.80;5.40;;;14.00;99.90;;;;;;4070177;29;20589;-95
2022/04/05 10:14:20;;;;;;;11.98;6.18;;;14.00;99.90;;;;;;4054226;29;20573;-94
2022/04/05 10:16:40;;;;;;;7.25;4.95;;;14.10;99.90;;;;;;4069860;29;20260;-95
2022/04/05 10:18:48;;;;;;;5.47;4.63;;;14.30;99.90;;;;;;4054578;29;20223;-94
2022/04/05 10:21:01;;;;;;;8.98;5.15;;;14.10;99.90;;;;;;4054126;29;20634;-94
2022/04/05 10:23:34;;;;;;;7.35;5.53;;;13.90;99.90;;;;;;4070037;29;20248;-94
2022/04/05 10:25:42;;;;;;;9.25;7.38;;;14.00;99.90;;;;;;4051190;29;20717;-94
2022/04/05 10:27:50;;;;;;;6.82;4.72;;;14.30;99.90;;;;;;4055708;29;20235;-95
2022/04/05 10:30:42;;;;;;;7.30;5.20;;;14.00;99.90;;;;;;4055933;29;20176;-95
2022/04/05 10:33:07;;;;;;;6.47;4.60;;;14.00;99.90;;;;;;4054301;29;20701;-95
2022/04/05 10:35:13;;;;;;;6.93;5.18;;;14.00;99.90;;;;;;4054303;29;20257;-96
2022/04/05 10:37:19;;;;;;;7.45;5.60;;;14.10;99.90;;;;;;4069720;29;20559;-93
2022/04/05 10:39:23;;;;;;;6.75;4.70;;;14.20;99.90;;;;;;4054171;29;20191;-94
2022/04/05 10:41:24;;;;;;;7.82;4.80;;;14.10;99.90;;;;;;4054111;29;20681;-94
2022/04/05 10:43:34;;;;;;;5.63;4.97;;;14.00;99.90;;;;;;4054906;29;20599;-93
2022/04/05 10:45:42;;;;;;;6.38;4.80;;;13.90;99.90;;;;;;4054383;29;20185;-92
2022/04/05 10:48:10;;;;;;;5.28;4.78;;;14.30;99.90;;;;;;4053708;29;20661;-92
2022/04/05 10:50:18;;;;;;;7.97;4.80;;;14.20;99.90;;;;;;4053591;29;20189;-94
2022/04/05 10:52:25;;;;;;;8.48;4.80;;;14.00;99.90;;;;;;4053848;29;20587;-93
2022/04/05 10:54:36;;;;;;;7.10;5.43;;;14.10;99.90;;;;;;4069500;29;20207;-93
2022/04/05 10:56:37;;;;;;;8.13;5.32;;;14.20;99.90;;;;;;4070542;29;20199;-94
2022/04/05 10:58:39;;;;;;;5.43;4.20;;;14.40;99.90;;;;;;4053912;29;20264;-92
2022/04/05 11:00:48;;;;;;;5.65;4.70;;;14.20;99.90;;;;;;4053844;29;20177;-95
2022/04/05 11:02:53;;;;;;;5.78;4.53;;;14.10;99.90;;;;;;4069448;29;20354;-93
2022/04/05 11:05:03;;;;;;;9.95;5.13;;;14.30;99.90;;;;;;4053785;29;20187;-92
2022/04/05 11:07:11;;;;;;;6.88;5.32;;;14.40;99.90;;;;;;4053845;29;20200;-92
2022/04/05 11:09:27;;;;;;;6.32;4.82;;;14.40;99.90;;;;;;4053868;29;20279;-95
2022/04/05 11:11:28;;;;;;;7.13;4.82;;;14.30;99.90;;;;;;4054109;29;20185;-94
2022/04/05 11:13:35;;;;;;;10.75;4.80;;;14.10;99.90;;;;;;4053121;29;20247;-92
2022/04/05 11:15:45;;;;;;;7.97;5.03;;;14.30;99.90;;;;;;4053233;29;20181;-92
2022/04/05 11:17:48;;;;;;;5.43;4.30;;;14.20;99.90;;;;;;4069078;29;20202;-94
2022/04/05 11:19:52;;;;;;;3.72;2.97;;;14.40;99.90;;;;;;4069307;29;20188;-93
2022/04/05 11:21:59;;;;;;;13.70;4.85;;;14.40;99.90;;;;;;4053658;29;20169;-92
2022/04/05 11:24:03;;;;;;;7.85;4.75;;;14.50;99.90;;;;;;4053817;29;20188;-94
2022/04/05 11:26:33;;;;;;;6.13;4.63;;;14.40;99.90;;;;;;4068825;29;20176;-94
2022/04/05 11:28:45;;;;;;;10.02;5.43;;;14.40;99.90;;;;;;4054161;29;20184;-92
2022/04/05 11:31:08;;;;;;;9.77;5.38;;;14.40;99.90;;;;;;4068915;29;20168;-92
2022/04/05 11:33:15;;;;;;;6.22;5.05;;;14.20;99.90;;;;;;4053862;29;20188;-93
2022/04/05 11:35:26;;;;;;;10.23;4.85;;;14.30;99.90;;;;;;4055527;29;20180;-94
2022/04/05 11:37:34;;;;;;;7.72;5.22;;;14.50;99.90;;;;;;4053011;29;20211;-94
2022/04/05 11:39:40;;;;;;;4.43;4.03;;;14.60;99.90;;;;;;4053570;29;20188;-94
2022/04/05 11:41:41;;;;;;;6.25;4.50;;;14.40;99.90;;;;;;4054265;29;20164;-94
2022/04/05 11:44:03;;;;;;;6.90;4.35;;;14.70;99.90;;;;;;4069269;29;20184;-93
2022/04/05 11:46:09;;;;;;;4.68;3.90;;;14.80;99.90;;;;;;4053310;29;20605;-93
2022/04/05 11:48:16;;;;;;;7.13;4.10;;;14.70;99.90;;;;;;4055463;29;20642;-92
2022/04/05 11:50:19;;;;;;;5.22;4.07;;;14.50;99.90;;;;;;4076152;29;20251;-92
2022/04/05 11:52:28;;;;;;;4.97;4.20;;;14.40;99.90;;;;;;4060835;29;20181;-93
2022/04/05 11:54:29;;;;;;;5.65;4.22;;;14.40;99.90;;;;;;4063081;29;20243;-94
2022/04/05 11:56:30;;;;;;;5.50;4.47;;;14.80;99.90;;;;;;4060837;29;20180;-92
2022/04/05 11:58:34;;;;;;;4.70;3.75;;;15.30;99.90;;;;;;4059321;29;20197;-92
2022/04/05 12:00:51;;;;;;;4.07;3.67;;;15.30;99.90;;;;;;4059009;29;20669;-93
2022/04/05 12:03:03;;;;;;;38.40;23.58;;;15.30;99.90;;;;;;4074246;29;20211;-93
2022/04/05 12:05:04;;;;;;;269.85;140.23;;;15.20;99.90;;;;;;4059127;29;20240;-93
2022/04/05 12:07:17;;;;;;;51.13;31.98;;;14.90;99.90;;;;;;4076343;29;20775;-93
2022/04/05 12:09:19;;;;;;;6.22;4.95;;;14.70;99.90;;;;;;4060349;29;20177;-95
2022/04/05 12:11:22;;;;;;;5.25;4.18;;;14.60;99.90;;;;;;4060539;29;20266;-92
2022/04/05 12:13:28;;;;;;;4.65;3.67;;;14.50;99.90;;;;;;4070707;29;20219;-93
2022/04/05 12:15:30;;;;;;;6.32;4.80;;;15.10;99.90;;;;;;4053069;29;20260;-92
2022/04/05 12:17:31;;;;;;;4.47;3.67;;;15.50;99.90;;;;;;4052723;29;20204;-93
2022/04/05 12:19:37;;;;;;;6.80;6.07;;;15.80;99.90;;;;;;4053065;29;20673;-94
2022/04/05 12:21:41;;;;;;;3.72;2.92;;;16.00;99.90;;;;;;4069186;29;20179;-95
2022/04/05 12:23:45;;;;;;;4.07;3.67;;;15.90;99.90;;;;;;4052859;29;20661;-93
2022/04/05 12:26:09;;;;;;;3.22;2.15;;;16.00;99.90;;;;;;4068940;29;20340;-93
2022/04/05 12:28:10;;;;;;;3.30;3.00;;;16.10;99.90;;;;;;4052890;29;20248;-94
2022/04/05 12:30:13;;;;;;;3.42;2.40;;;16.10;99.90;;;;;;4054179;29;20184;-94
2022/04/05 12:32:16;;;;;;;2.20;2.00;;;15.90;99.90;;;;;;4052882;29;20739;-95
2022/04/05 12:34:20;;;;;;;2.00;1.80;;;15.90;99.90;;;;;;4068409;29;20208;-94
2022/04/05 12:36:25;;;;;;;5.40;3.00;;;15.90;99.90;;;;;;4052945;29;20177;-93
2022/04/05 12:38:31;;;;;;;2.70;2.30;;;15.60;99.90;;;;;;4052851;29;20666;-94
2022/04/05 12:40:40;;;;;;;2.67;2.00;;;15.50;99.90;;;;;;4052991;29;20272;-93
2022/04/05 12:42:44;;;;;;;1.88;1.63;;;15.60;99.90;;;;;;4052865;29;20184;-94
2022/04/05 12:44:48;;;;;;;1.85;1.70;;;15.60;99.90;;;;;;4053030;29;20538;-93
2022/04/05 12:46:50;;;;;;;2.78;1.80;;;15.80;99.90;;;;;;4052721;29;20673;-93
2022/04/05 12:48:51;;;;;;;2.10;1.80;;;15.50;99.90;;;;;;4052578;29;20221;-93
2022/04/05 12:50:52;;;;;;;2.08;1.85;;;15.20;99.90;;;;;;4053207;29;20184;-94
2022/04/05 12:53:00;;;;;;;2.25;1.80;;;15.10;99.90;;;;;;4053250;29;20212;-93
2022/04/05 12:55:19;;;;;;;3.40;1.80;;;15.10;99.90;;;;;;4052820;29;20212;-93
2022/04/05 12:57:51;;;;;;;7.38;2.08;;;15.10;99.90;;;;;;4053278;29;20208;-94
2022/04/05 13:00:18;;;;;;;3.40;2.13;;;15.10;99.90;;;;;;4060925;29;20247;-93
2022/04/05 13:02:21;;;;;;;2.40;2.13;;;15.10;99.90;;;;;;4043778;29;20214;-93
2022/04/05 13:04:23;;;;;;;5.32;2.00;;;14.90;99.90;;;;;;4052411;29;20180;-95
2022/04/05 13:06:25;;;;;;;2.58;2.30;;;14.70;99.90;;;;;;4053303;29;20208;-93
2022/04/05 13:08:33;;;;;;;4.15;2.28;;;14.70;99.90;;;;;;4052525;29;20603;-95
2022/04/05 13:10:53;;;;;;;2.72;2.22;;;14.60;99.90;;;;;;4052547;29;20272;-95
2022/04/05 13:13:16;;;;;;;2.95;2.30;;;14.40;99.90;;;;;;4070271;29;20275;-96
2022/04/05 13:15:37;;;;;;;4.10;2.60;;;14.50;99.90;;;;;;4054872;29;20479;-95
2022/04/05 13:17:46;;;;;;;7.03;2.83;;;14.50;99.90;;;;;;4071181;29;20222;-95
2022/04/05 13:19:59;;;;;;;3.72;2.55;;;14.50;99.90;;;;;;4055110;29;20209;-94
2022/04/05 13:22:00;;;;;;;4.25;2.70;;;14.50;99.90;;;;;;4057497;29;20180;-94
2022/04/05 13:24:13;;;;;;;4.88;2.90;;;14.70;99.90;;;;;;4072212;29;20176;-94
2022/04/05 13:26:24;;;;;;;4.03;3.10;;;15.00;99.90;;;;;;4055423;29;20204;-96
2022/04/05 13:29:07;;;;;;;4.80;3.38;;;15.30;99.90;;;;;;4071179;29;20242;-93
2022/04/05 13:31:34;;;;;;;5.05;3.20;;;15.40;99.90;;;;;;4055338;29;20216;-95
2022/04/05 13:33:49;;;;;;;5.22;3.65;;;15.30;99.90;;;;;;4054795;29;20311;-94
2022/04/05 13:36:09;;;;;;;6.88;3.10;;;15.40;99.90;;;;;;4061780;29;20185;-96
2022/04/05 13:38:31;;;;;;;;;;;;;;;;;;;;;
2022/04/05 13:40:47;;;;;;;6.07;3.58;;;15.40;99.90;;;;;;4071624;29;20184;-94
2022/04/05 13:44:05;;;;;;;11.65;4.13;;;15.50;99.90;;;;;;4054717;29;20181;-95
2022/04/05 13:49:05;;;;;;;7.72;3.78;;;15.50;99.90;;;;;;4031989;29;20406;-95
2022/04/05 13:51:45;;;;;;;6.97;4.00;;;15.30;99.90;;;;;;4055423;29;20184;-95
2022/04/05 13:53:49;;;;;;;9.48;4.15;;;15.20;99.90;;;;;;4051376;29;20581;-95
2022/04/05 13:56:23;;;;;;;7.57;3.78;;;15.10;99.90;;;;;;4072729;29;20175;-96